Time;durP1;ratioP1;P1;durP2;ratioP2;P2;SDS_P1;SDS_P2;PMS_P1;PMS_P2;Temp;Humidity;BMP_temperature;BMP_pressure;BME280_temperature;BME280_humidity;BME280_pressure;Samples;Min_cycle;Max_cycle;Signal;HPM_P1;HPM_P2
2022/01/10 00:00:23;;;;;;;46.63;20.73;;;4.00;99.90;;;;;;5057374;28;20029;-77
2022/01/10 00:02:52;;;;;;;56.55;22.17;;;4.00;99.90;;;;;;5053008;28;20037;-76
2022/01/10 00:05:18;;;;;;;56.20;22.90;;;4.00;99.90;;;;;;5057373;28;20025;-76
2022/01/10 00:07:47;;;;;;;54.33;23.65;;;3.90;99.90;;;;;;5033359;28;20056;-76
2022/01/10 00:10:14;;;;;;;52.40;22.83;;;3.80;99.90;;;;;;5033751;28;20025;-76
2022/01/10 00:12:39;;;;;;;62.72;24.92;;;3.80;99.90;;;;;;5040653;28;20653;-76
2022/01/10 00:15:07;;;;;;;56.72;23.27;;;3.90;99.90;;;;;;5055021;28;20040;-76
2022/01/10 00:17:33;;;;;;;55.97;24.80;;;3.90;99.90;;;;;;5057929;28;20032;-77
2022/01/10 00:19:59;;;;;;;52.33;24.17;;;3.90;99.90;;;;;;5055633;28;20146;-76
2022/01/10 00:22:26;;;;;;;56.42;23.42;;;3.90;99.90;;;;;;5073460;28;20061;-77
2022/01/10 00:24:56;;;;;;;54.00;24.25;;;3.90;99.90;;;;;;5069964;28;20104;-76
2022/01/10 00:27:22;;;;;;;47.60;23.52;;;3.90;99.90;;;;;;5062575;28;20020;-76
2022/01/10 00:29:49;;;;;;;49.08;23.50;;;3.90;99.90;;;;;;5053465;28;20211;-77
2022/01/10 00:32:14;;;;;;;47.78;20.48;;;3.90;99.90;;;;;;5053424;28;20114;-77
2022/01/10 00:34:40;;;;;;;59.60;23.52;;;3.80;99.90;;;;;;5060706;28;20055;-76
2022/01/10 00:37:07;;;;;;;59.53;24.70;;;3.80;99.90;;;;;;5064812;28;20021;-76
2022/01/10 00:39:32;;;;;;;50.30;23.73;;;3.70;99.90;;;;;;5060379;28;20545;-77
2022/01/10 00:41:59;;;;;;;53.28;23.55;;;3.70;99.90;;;;;;5035100;28;20108;-77
2022/01/10 00:44:27;;;;;;;56.80;24.90;;;3.70;99.90;;;;;;5059191;28;20025;-76
2022/01/10 00:46:53;;;;;;;50.50;25.00;;;3.80;99.90;;;;;;5073091;28;20027;-78
2022/01/10 00:49:20;;;;;;;50.25;24.15;;;3.80;99.90;;;;;;5039908;28;20029;-77
2022/01/10 00:51:48;;;;;;;51.85;25.63;;;3.80;99.90;;;;;;5042594;28;21713;-76
2022/01/10 00:54:13;;;;;;;50.88;23.85;;;3.80;99.90;;;;;;5053009;28;20025;-76
2022/01/10 00:56:40;;;;;;;52.45;26.65;;;3.80;99.90;;;;;;5052841;28;20442;-76
2022/01/10 00:59:06;;;;;;;52.03;25.23;;;3.80;99.90;;;;;;5053065;28;20025;-77
2022/01/10 01:01:32;;;;;;;52.13;23.58;;;3.80;99.90;;;;;;5053084;28;20477;-76
2022/01/10 01:03:57;;;;;;;56.13;24.13;;;3.80;99.90;;;;;;5052686;28;20389;-76
2022/01/10 01:06:25;;;;;;;54.15;24.40;;;3.80;99.90;;;;;;5060278;28;20527;-76
2022/01/10 01:08:57;;;;;;;44.55;21.75;;;3.70;99.90;;;;;;5073026;28;20051;-76
2022/01/10 01:11:49;;;;;;;54.25;22.33;;;3.70;99.90;;;;;;5072778;28;20021;-76
2022/01/10 01:14:21;;;;;;;55.92;23.40;;;3.60;99.90;;;;;;5073127;28;20485;-76
2022/01/10 01:17:08;;;;;;;57.60;23.42;;;3.60;99.90;;;;;;5072898;28;20016;-76
2022/01/10 01:25:13;;;;;;;58.03;23.75;;;3.60;99.90;;;;;;5032908;28;20036;-76
2022/01/10 01:27:40;;;;;;;51.03;23.67;;;3.70;99.90;;;;;;5065260;28;20047;-76
2022/01/10 01:30:07;;;;;;;53.65;24.17;;;3.70;99.90;;;;;;5071473;28;20476;-76
2022/01/10 01:32:34;;;;;;;56.20;23.73;;;3.60;99.90;;;;;;5071831;28;20115;-76
2022/01/10 01:35:06;;;;;;;50.08;23.92;;;3.50;99.90;;;;;;5059466;28;20021;-76
2022/01/10 01:37:35;;;;;;;58.05;26.55;;;3.60;99.90;;;;;;5068318;28;20964;-77
2022/01/10 01:40:04;;;;;;;46.85;22.48;;;3.70;99.90;;;;;;5072432;28;20019;-76
2022/01/10 01:42:34;;;;;;;60.20;23.45;;;3.60;99.90;;;;;;5052793;28;20086;-76
2022/01/10 01:45:02;;;;;;;56.53;25.05;;;3.60;99.90;;;;;;5051337;28;20022;-76
2022/01/10 01:47:28;;;;;;;56.85;24.23;;;3.50;99.90;;;;;;5052525;28;20025;-77
2022/01/10 01:49:56;;;;;;;57.72;26.25;;;3.50;99.90;;;;;;5054990;28;20021;-76
2022/01/10 01:52:23;;;;;;;58.58;26.77;;;3.50;99.90;;;;;;5056391;28;20033;-76
2022/01/10 01:54:49;;;;;;;45.90;24.90;;;3.40;99.90;;;;;;5056272;28;20112;-76
2022/01/10 01:57:15;;;;;;;54.78;25.52;;;3.50;99.90;;;;;;5056076;28;20480;-76
2022/01/10 01:59:41;;;;;;;45.88;25.25;;;3.50;99.90;;;;;;5055012;28;20025;-77
2022/01/10 02:02:07;;;;;;;55.45;24.75;;;3.50;99.90;;;;;;5056262;28;20750;-77
2022/01/10 02:04:33;;;;;;;51.30;23.15;;;3.50;99.90;;;;;;5054701;28;20029;-77
2022/01/10 02:06:59;;;;;;;56.90;21.83;;;3.50;99.90;;;;;;5054931;28;20028;-77
2022/01/10 02:09:25;;;;;;;50.97;23.13;;;3.50;99.90;;;;;;5068973;28;20449;-77
2022/01/10 02:11:52;;;;;;;47.13;22.38;;;3.50;99.90;;;;;;5069857;28;20029;-77
2022/01/10 02:14:18;;;;;;;51.13;23.58;;;3.50;99.90;;;;;;5055962;28;20021;-77
2022/01/10 02:16:52;;;;;;;47.00;22.33;;;3.50;99.90;;;;;;5063197;28;20052;-76
2022/01/10 02:19:18;;;;;;;49.53;24.50;;;3.50;99.90;;;;;;5074552;28;20107;-76
2022/01/10 02:21:44;;;;;;;51.00;24.33;;;3.50;99.90;;;;;;5075627;28;20460;-77
2022/01/10 02:24:10;;;;;;;62.63;26.60;;;3.50;99.90;;;;;;5074300;28;20029;-76
2022/01/10 02:26:37;;;;;;;53.28;24.40;;;3.40;99.90;;;;;;5075635;28;20033;-76
2022/01/10 02:29:05;;;;;;;48.58;24.65;;;3.40;99.90;;;;;;5075689;28;20016;-75
2022/01/10 02:31:35;;;;;;;54.63;23.65;;;3.40;99.90;;;;;;5075272;28;20021;-76
2022/01/10 02:34:00;;;;;;;46.70;21.67;;;3.40;99.90;;;;;;5057159;28;20017;-76
2022/01/10 02:36:27;;;;;;;51.17;23.50;;;3.40;99.90;;;;;;5056763;28;20031;-76
2022/01/10 02:38:58;;;;;;;48.28;22.60;;;3.40;99.90;;;;;;5064654;28;20473;-76
2022/01/10 02:41:31;;;;;;;46.55;22.35;;;3.40;99.90;;;;;;5069055;28;20108;-75
2022/01/10 02:43:58;;;;;;;46.70;24.02;;;3.30;99.90;;;;;;5056197;28;20028;-75
2022/01/10 02:46:25;;;;;;;50.25;22.33;;;3.40;99.90;;;;;;5073837;28;20024;-75
2022/01/10 02:48:52;;;;;;;47.72;22.45;;;3.40;99.90;;;;;;5063206;28;20017;-75
2022/01/10 02:51:18;;;;;;;49.20;21.13;;;3.40;99.90;;;;;;5066207;28;20025;-75
2022/01/10 02:53:44;;;;;;;45.25;22.45;;;3.40;99.90;;;;;;5071091;28;20078;-75
2022/01/10 02:56:11;;;;;;;50.55;22.48;;;3.30;99.90;;;;;;5058312;28;20037;-75
2022/01/10 02:58:37;;;;;;;51.90;23.15;;;3.40;99.90;;;;;;5067289;28;20462;-75
2022/01/10 03:01:04;;;;;;;50.75;22.55;;;3.40;99.90;;;;;;5065865;28;20029;-75
2022/01/10 03:03:30;;;;;;;52.47;22.45;;;3.40;99.90;;;;;;5059581;28;20751;-75
2022/01/10 03:05:57;;;;;;;47.08;23.20;;;3.30;99.90;;;;;;5060622;28;20075;-75
2022/01/10 03:08:25;;;;;;;53.33;26.77;;;3.20;99.90;;;;;;5074677;28;20036;-75
2022/01/10 03:10:51;;;;;;;58.40;25.88;;;3.10;99.90;;;;;;5064626;28;20048;-75
2022/01/10 03:13:17;;;;;;;52.25;23.73;;;3.20;99.90;;;;;;5064694;28;20110;-75
2022/01/10 03:15:44;;;;;;;60.50;25.27;;;3.20;99.90;;;;;;5071643;28;20063;-75
2022/01/10 03:18:10;;;;;;;49.53;22.38;;;3.30;99.90;;;;;;5069093;28;20021;-75
2022/01/10 03:20:37;;;;;;;53.25;23.58;;;3.30;99.90;;;;;;5061523;28;20482;-75
2022/01/10 03:23:03;;;;;;;50.28;24.00;;;3.30;99.90;;;;;;5063139;28;20024;-75
2022/01/10 03:25:29;;;;;;;52.53;24.05;;;3.20;99.90;;;;;;5069674;28;20419;-75
2022/01/10 03:27:55;;;;;;;52.53;24.90;;;3.10;99.90;;;;;;5057351;28;20025;-75
2022/01/10 03:30:21;;;;;;;57.72;25.45;;;3.20;99.90;;;;;;5062546;28;20025;-75
2022/01/10 03:32:50;;;;;;;57.80;24.40;;;3.20;99.90;;;;;;5065378;28;20083;-75
2022/01/10 03:35:16;;;;;;;54.42;25.58;;;3.20;99.90;;;;;;5056911;28;20075;-75
2022/01/10 03:37:42;;;;;;;48.28;24.20;;;3.10;99.90;;;;;;5069143;28;20431;-75
2022/01/10 03:40:08;;;;;;;50.55;23.63;;;3.10;99.90;;;;;;5070412;28;20067;-75
2022/01/10 03:42:34;;;;;;;52.30;23.10;;;3.10;99.90;;;;;;5059796;28;20048;-75
2022/01/10 03:45:01;;;;;;;62.83;23.23;;;3.10;99.90;;;;;;5059659;28;20021;-75
2022/01/10 03:47:26;;;;;;;57.92;25.08;;;3.10;99.90;;;;;;5053676;28;20027;-75
2022/01/10 03:49:52;;;;;;;50.83;23.85;;;3.10;99.90;;;;;;5047686;28;20112;-75
2022/01/10 03:52:18;;;;;;;51.65;21.88;;;3.20;99.90;;;;;;5067170;28;20446;-75
2022/01/10 03:54:44;;;;;;;50.97;21.98;;;3.20;99.90;;;;;;5061694;28;20037;-75
2022/01/10 03:57:10;;;;;;;47.50;21.63;;;3.20;99.90;;;;;;5068067;28;20059;-75
2022/01/10 03:59:37;;;;;;;47.35;20.52;;;3.20;99.90;;;;;;5057717;28;20024;-75
2022/01/10 04:02:04;;;;;;;46.13;21.23;;;3.20;99.90;;;;;;5073187;28;20040;-76
2022/01/10 04:04:33;;;;;;;45.53;21.25;;;3.20;99.90;;;;;;5066658;28;20408;-77
2022/01/10 04:06:59;;;;;;;48.15;22.63;;;3.10;99.90;;;;;;5053764;28;20021;-76
2022/01/10 04:09:26;;;;;;;49.70;22.83;;;3.10;99.90;;;;;;5052560;28;20040;-76
2022/01/10 04:11:54;;;;;;;49.85;22.85;;;3.00;99.90;;;;;;5053224;28;20056;-76
2022/01/10 04:14:20;;;;;;;48.05;22.65;;;3.10;99.90;;;;;;5069291;28;20021;-76
2022/01/10 04:16:46;;;;;;;46.17;19.73;;;3.00;99.90;;;;;;5053961;28;20480;-76
2022/01/10 04:19:12;;;;;;;52.17;21.75;;;2.90;99.90;;;;;;5052428;28;20021;-76
2022/01/10 04:21:39;;;;;;;51.60;21.42;;;2.90;99.90;;;;;;5053487;28;20029;-76
2022/01/10 04:24:06;;;;;;;53.35;21.38;;;3.00;99.90;;;;;;5053153;28;20108;-77
2022/01/10 04:26:32;;;;;;;48.55;20.67;;;3.00;99.90;;;;;;5060453;28;20016;-76
2022/01/10 04:28:59;;;;;;;47.88;20.90;;;2.90;99.90;;;;;;5073529;28;20112;-76
2022/01/10 04:31:25;;;;;;;42.00;21.20;;;3.00;99.90;;;;;;5058342;28;20060;-76
2022/01/10 04:33:51;;;;;;;48.25;20.27;;;3.00;99.90;;;;;;5052486;28;20060;-77
2022/01/10 04:36:16;;;;;;;45.20;20.00;;;3.00;99.90;;;;;;5060438;28;20033;-77
2022/01/10 04:38:42;;;;;;;46.13;19.77;;;3.00;99.90;;;;;;5056450;28;20033;-77
2022/01/10 04:41:09;;;;;;;47.38;21.42;;;2.90;99.90;;;;;;5052320;28;20501;-76
2022/01/10 04:43:36;;;;;;;56.40;21.60;;;3.00;99.90;;;;;;5045226;28;20086;-76
2022/01/10 04:46:03;;;;;;;47.10;20.23;;;3.00;99.90;;;;;;5054630;28;20028;-77
2022/01/10 04:48:29;;;;;;;50.97;20.77;;;3.10;99.90;;;;;;5056501;28;20028;-75
2022/01/10 04:51:12;;;;;;;47.28;20.98;;;3.00;99.90;;;;;;5051617;28;20473;-76
2022/01/10 04:53:39;;;;;;;59.17;23.25;;;3.00;99.90;;;;;;5051659;28;20016;-76
2022/01/10 04:56:06;;;;;;;44.72;22.08;;;3.00;99.90;;;;;;5040127;28;20501;-76
2022/01/10 04:58:34;;;;;;;54.15;22.10;;;3.10;99.90;;;;;;5053102;28;20032;-76
2022/01/10 05:01:03;;;;;;;67.97;23.65;;;3.10;99.90;;;;;;5053577;28;20033;-76
2022/01/10 05:03:30;;;;;;;53.42;22.88;;;3.00;99.90;;;;;;5051441;28;20182;-76
2022/01/10 05:05:58;;;;;;;67.22;25.95;;;3.10;99.90;;;;;;5051974;28;20033;-76
2022/01/10 05:08:25;;;;;;;68.35;25.85;;;3.10;99.90;;;;;;5053521;28;20032;-76
2022/01/10 05:10:53;;;;;;;48.15;22.80;;;3.20;99.90;;;;;;5051821;28;20021;-76
2022/01/10 05:13:20;;;;;;;54.08;20.88;;;3.10;99.90;;;;;;5052060;28;20028;-76
2022/01/10 05:15:47;;;;;;;46.08;22.98;;;3.10;99.90;;;;;;5052968;28;20125;-76
2022/01/10 05:18:17;;;;;;;43.60;21.98;;;3.10;99.90;;;;;;5053325;28;20211;-76
2022/01/10 05:20:44;;;;;;;40.90;21.92;;;3.10;99.90;;;;;;5052138;28;20029;-77
2022/01/10 05:23:13;;;;;;;39.17;20.98;;;3.10;99.90;;;;;;5053029;28;20501;-76
2022/01/10 05:25:41;;;;;;;45.38;20.98;;;3.00;99.90;;;;;;5056760;28;20029;-77
2022/01/10 05:28:10;;;;;;;37.10;18.98;;;2.90;99.90;;;;;;5055920;28;20017;-74
2022/01/10 05:30:36;;;;;;;37.05;19.70;;;2.90;99.90;;;;;;5057698;28;20024;-74
2022/01/10 05:33:03;;;;;;;35.88;19.40;;;3.00;99.90;;;;;;5056243;28;20033;-74
2022/01/10 05:35:28;;;;;;;42.05;20.25;;;3.00;99.90;;;;;;5055502;28;20037;-75
2022/01/10 05:37:54;;;;;;;52.25;22.20;;;2.90;99.90;;;;;;5055883;28;20036;-74
2022/01/10 05:40:20;;;;;;;47.05;22.50;;;2.90;99.90;;;;;;5055972;28;20119;-76
2022/01/10 05:42:46;;;;;;;46.72;23.65;;;3.00;99.90;;;;;;5055881;28;20029;-76
2022/01/10 05:45:12;;;;;;;52.05;23.27;;;3.00;99.90;;;;;;5053807;28;20100;-75
2022/01/10 05:47:43;;;;;;;41.90;21.65;;;3.10;99.90;;;;;;5054207;28;20103;-75
2022/01/10 05:50:11;;;;;;;49.50;22.50;;;3.00;99.90;;;;;;5054705;28;20032;-75
2022/01/10 05:52:38;;;;;;;43.60;18.88;;;3.00;99.90;;;;;;5054943;28;20036;-75
2022/01/10 05:55:05;;;;;;;43.83;20.65;;;3.00;99.90;;;;;;5055674;28;20082;-75
2022/01/10 05:57:31;;;;;;;49.90;21.20;;;3.00;99.90;;;;;;5055052;28;20096;-75
2022/01/10 05:59:57;;;;;;;53.33;21.50;;;2.90;99.90;;;;;;5055436;28;20489;-75
2022/01/10 06:02:23;;;;;;;45.20;21.85;;;2.80;99.90;;;;;;5054779;28;20493;-75
2022/01/10 06:04:48;;;;;;;52.47;20.75;;;2.90;99.90;;;;;;5055401;28;20033;-75
2022/01/10 06:07:14;;;;;;;42.88;21.60;;;2.80;99.90;;;;;;5055357;28;20092;-75
2022/01/10 06:09:40;;;;;;;48.08;21.00;;;2.80;99.90;;;;;;5055318;28;20354;-75
2022/01/10 06:12:06;;;;;;;51.63;22.35;;;2.90;99.90;;;;;;5054115;28;20499;-75
2022/01/10 06:14:32;;;;;;;48.53;21.23;;;2.90;99.90;;;;;;5055063;28;20017;-75
2022/01/10 06:16:58;;;;;;;37.10;18.90;;;2.80;99.90;;;;;;5055320;28;20031;-75
2022/01/10 06:19:24;;;;;;;38.65;19.27;;;2.90;99.90;;;;;;5052034;28;20028;-75
2022/01/10 06:21:49;;;;;;;53.05;19.50;;;2.90;99.90;;;;;;5055684;28;20029;-75
2022/01/10 06:24:15;;;;;;;45.38;19.20;;;2.80;99.90;;;;;;5072375;28;20382;-75
2022/01/10 06:26:41;;;;;;;60.58;20.15;;;2.90;99.90;;;;;;5055277;28;20055;-75
2022/01/10 06:29:07;;;;;;;37.15;18.23;;;2.80;99.90;;;;;;5053727;28;20044;-75
2022/01/10 06:31:32;;;;;;;35.58;17.50;;;2.80;99.90;;;;;;5054956;28;20465;-75
2022/01/10 06:33:58;;;;;;;45.03;16.75;;;2.80;99.90;;;;;;5054476;28;20029;-75
2022/01/10 06:36:24;;;;;;;61.72;19.00;;;2.80;99.90;;;;;;5054406;28;20033;-75
2022/01/10 06:38:51;;;;;;;41.78;17.77;;;2.70;99.90;;;;;;5054620;28;20025;-75
2022/01/10 06:41:16;;;;;;;53.50;21.00;;;2.80;99.90;;;;;;5055115;28;20029;-75
2022/01/10 06:43:42;;;;;;;50.95;19.25;;;2.80;99.90;;;;;;5054479;28;20465;-75
2022/01/10 06:46:08;;;;;;;45.08;19.13;;;2.80;99.90;;;;;;5054938;28;20032;-75
2022/01/10 06:48:36;;;;;;;42.38;17.77;;;2.80;99.90;;;;;;5054877;28;20049;-75
2022/01/10 06:51:02;;;;;;;48.95;18.52;;;2.80;99.90;;;;;;5055023;28;20025;-75
2022/01/10 06:53:27;;;;;;;47.67;18.33;;;2.80;99.90;;;;;;5054739;28;20155;-75
2022/01/10 06:55:53;;;;;;;75.80;20.92;;;2.70;99.90;;;;;;5054820;28;20036;-75
2022/01/10 06:58:20;;;;;;;58.13;18.85;;;2.60;99.90;;;;;;5042956;28;20037;-74
2022/01/10 07:00:46;;;;;;;55.35;18.35;;;2.60;99.90;;;;;;5049540;28;20467;-74
2022/01/10 07:03:12;;;;;;;46.42;17.58;;;2.70;99.90;;;;;;5033854;28;20029;-75
2022/01/10 07:05:38;;;;;;;39.20;17.98;;;2.80;99.90;;;;;;5039101;28;20037;-74
2022/01/10 07:08:04;;;;;;;61.30;18.65;;;2.70;99.90;;;;;;5054559;28;20048;-75
2022/01/10 07:10:30;;;;;;;64.47;18.35;;;2.80;99.90;;;;;;5053383;28;20072;-75
2022/01/10 07:12:56;;;;;;;65.25;17.98;;;2.80;99.90;;;;;;5054404;28;20036;-75
2022/01/10 07:15:25;;;;;;;51.05;18.63;;;2.80;99.90;;;;;;5047007;28;20087;-75
2022/01/10 07:17:51;;;;;;;50.50;17.33;;;2.80;99.90;;;;;;5040846;28;20028;-75
2022/01/10 07:20:16;;;;;;;58.15;18.08;;;2.90;99.90;;;;;;5046987;28;20022;-76
2022/01/10 07:22:42;;;;;;;87.57;20.90;;;2.90;99.90;;;;;;5045954;28;20060;-75
2022/01/10 07:25:08;;;;;;;106.85;19.05;;;3.00;99.90;;;;;;5057310;28;20079;-75
2022/01/10 07:27:34;;;;;;;131.32;21.55;;;2.80;99.90;;;;;;5046607;28;20079;-75
2022/01/10 07:30:02;;;;;;;64.15;18.45;;;2.80;99.90;;;;;;5058083;28;20024;-75
2022/01/10 07:32:29;;;;;;;90.35;21.40;;;2.80;99.90;;;;;;5051122;28;20078;-75
2022/01/10 07:34:55;;;;;;;69.85;19.42;;;2.80;99.90;;;;;;5061033;28;20481;-75
2022/01/10 07:37:21;;;;;;;73.97;18.60;;;2.80;99.90;;;;;;5054241;28;20055;-75
2022/01/10 07:39:47;;;;;;;83.63;18.23;;;2.70;99.90;;;;;;5043854;28;20029;-75
2022/01/10 07:42:14;;;;;;;123.50;21.50;;;2.60;99.90;;;;;;5046657;28;20026;-75
2022/01/10 07:44:40;;;;;;;125.20;20.42;;;2.70;99.90;;;;;;5045282;28;20032;-75
2022/01/10 07:47:07;;;;;;;123.05;20.92;;;2.60;99.90;;;;;;5043292;28;20092;-75
2022/01/10 07:49:34;;;;;;;71.70;18.17;;;2.50;99.90;;;;;;5043266;28;20063;-75
2022/01/10 07:52:00;;;;;;;68.35;18.77;;;2.40;99.90;;;;;;5052269;28;20364;-75
2022/01/10 07:54:27;;;;;;;238.40;26.23;;;2.60;99.90;;;;;;5051423;28;20025;-75
2022/01/10 07:56:53;;;;;;;77.97;15.73;;;2.50;99.90;;;;;;5041757;28;20097;-75
2022/01/10 07:59:22;;;;;;;92.88;18.85;;;2.40;99.90;;;;;;5064950;28;20107;-75
2022/01/10 08:01:49;;;;;;;61.42;16.88;;;2.50;99.90;;;;;;5052145;28;20057;-75
2022/01/10 08:04:15;;;;;;;97.78;19.63;;;2.50;99.90;;;;;;5046879;28;20477;-75
2022/01/10 08:06:42;;;;;;;54.03;17.90;;;2.50;99.90;;;;;;5057854;28;20116;-75
2022/01/10 08:09:12;;;;;;;86.78;18.13;;;2.60;99.90;;;;;;5045865;28;20532;-75
2022/01/10 08:11:37;;;;;;;116.97;19.08;;;2.70;99.90;;;;;;5038191;28;20029;-75
2022/01/10 08:14:05;;;;;;;63.78;17.60;;;2.40;99.90;;;;;;5040548;28;20060;-75
2022/01/10 08:16:31;;;;;;;108.82;20.13;;;2.50;99.90;;;;;;5048352;28;20466;-76
2022/01/10 08:18:56;;;;;;;132.15;19.95;;;2.60;99.90;;;;;;5039574;28;20055;-76
2022/01/10 08:21:23;;;;;;;55.70;14.60;;;2.60;99.90;;;;;;5058098;28;20032;-76
2022/01/10 08:23:49;;;;;;;63.13;16.55;;;2.60;99.90;;;;;;5047777;28;20477;-77
2022/01/10 08:26:14;;;;;;;68.72;16.77;;;2.60;99.90;;;;;;5059966;28;20044;-76
2022/01/10 08:28:41;;;;;;;86.38;18.33;;;2.60;99.90;;;;;;5052564;28;20017;-76
2022/01/10 08:31:09;;;;;;;150.30;20.67;;;2.50;99.90;;;;;;5047599;28;20055;-76
2022/01/10 08:33:37;;;;;;;52.50;17.23;;;2.40;99.90;;;;;;5046663;28;20025;-75
2022/01/10 08:36:04;;;;;;;297.42;26.50;;;2.50;99.90;;;;;;5044663;28;20083;-76
2022/01/10 08:38:30;;;;;;;112.22;17.58;;;2.50;99.90;;;;;;5040008;28;20039;-76
2022/01/10 08:40:55;;;;;;;59.05;15.73;;;2.50;99.90;;;;;;5050093;28;20386;-76
2022/01/10 08:43:21;;;;;;;37.33;14.23;;;2.60;99.90;;;;;;5041632;28;20036;-76
2022/01/10 08:45:47;;;;;;;372.38;27.38;;;2.60;99.90;;;;;;5047163;28;20061;-76
2022/01/10 08:48:13;;;;;;;152.82;19.25;;;2.50;99.90;;;;;;5032677;28;20033;-76
2022/01/10 08:50:40;;;;;;;81.00;16.08;;;2.60;99.90;;;;;;5040076;28;20033;-76
2022/01/10 08:53:09;;;;;;;128.80;15.45;;;2.60;99.90;;;;;;5050166;28;20028;-76
2022/01/10 08:55:34;;;;;;;65.85;14.68;;;2.30;99.90;;;;;;5043210;28;20104;-76
2022/01/10 08:58:01;;;;;;;65.32;15.23;;;2.20;99.90;;;;;;5034765;28;20163;-76
2022/01/10 09:00:28;;;;;;;62.35;17.40;;;2.20;99.90;;;;;;5040500;28;20018;-76
2022/01/10 09:02:53;;;;;;;86.30;17.98;;;2.30;99.90;;;;;;5038038;28;20028;-76
2022/01/10 09:05:19;;;;;;;53.45;15.13;;;2.20;99.90;;;;;;5052591;28;20025;-76
2022/01/10 09:07:45;;;;;;;105.50;17.23;;;2.20;99.90;;;;;;5048566;28;20016;-76
2022/01/10 09:10:11;;;;;;;57.45;15.25;;;2.20;99.90;;;;;;5049876;28;20021;-76
2022/01/10 09:12:38;;;;;;;67.78;16.92;;;2.40;99.90;;;;;;5048235;28;20041;-76
2022/01/10 09:15:06;;;;;;;94.38;16.08;;;2.60;99.90;;;;;;5034154;28;20042;-76
2022/01/10 09:17:32;;;;;;;71.93;14.90;;;2.50;99.90;;;;;;5051031;28;20021;-76
2022/01/10 09:19:59;;;;;;;83.78;14.05;;;2.50;99.90;;;;;;5036397;28;20458;-76
2022/01/10 09:22:25;;;;;;;67.93;15.23;;;2.40;99.90;;;;;;5034619;28;20025;-76
2022/01/10 09:24:51;;;;;;;68.72;15.13;;;2.40;99.90;;;;;;5034039;28;20029;-76
2022/01/10 09:27:16;;;;;;;44.67;13.82;;;2.50;99.90;;;;;;5058443;28;20032;-75
2022/01/10 09:29:45;;;;;;;43.35;15.20;;;2.60;99.90;;;;;;5054286;28;20036;-76
2022/01/10 09:32:11;;;;;;;140.88;19.25;;;2.70;99.90;;;;;;5049771;28;20025;-76
2022/01/10 09:34:36;;;;;;;47.40;14.80;;;2.80;99.90;;;;;;5044760;28;20079;-77
2022/01/10 09:37:04;;;;;;;101.32;17.13;;;2.90;99.90;;;;;;5042175;28;20029;-76
2022/01/10 09:39:31;;;;;;;60.70;15.05;;;2.80;99.90;;;;;;5046666;28;20040;-76
2022/01/10 09:41:57;;;;;;;61.05;15.00;;;2.70;99.90;;;;;;5039462;28;20025;-76
2022/01/10 09:44:24;;;;;;;44.85;14.85;;;2.80;99.90;;;;;;5042842;28;20044;-76
2022/01/10 09:46:50;;;;;;;80.65;15.82;;;2.90;99.90;;;;;;5039915;28;20037;-77
2022/01/10 09:49:17;;;;;;;53.45;15.25;;;2.80;99.90;;;;;;5054190;28;20036;-76
2022/01/10 09:51:44;;;;;;;46.63;14.70;;;3.00;99.90;;;;;;5049953;28;20040;-77
2022/01/10 09:54:10;;;;;;;205.90;22.75;;;3.10;99.90;;;;;;5046219;28;20159;-75
2022/01/10 09:56:37;;;;;;;56.60;14.93;;;3.10;99.90;;;;;;5042302;28;20021;-75
2022/01/10 09:59:03;;;;;;;90.07;16.17;;;3.10;99.90;;;;;;5035676;28;20482;-75
2022/01/10 10:01:30;;;;;;;46.70;16.05;;;3.20;99.90;;;;;;5036218;28;20481;-75
2022/01/10 10:03:59;;;;;;;57.47;14.98;;;3.30;99.90;;;;;;5051254;28;20028;-75
2022/01/10 10:06:26;;;;;;;44.95;15.02;;;3.30;99.90;;;;;;5053446;28;20025;-75
2022/01/10 10:08:52;;;;;;;84.03;18.98;;;3.40;99.90;;;;;;5043984;28;20065;-75
2022/01/10 10:11:19;;;;;;;71.90;15.00;;;3.30;99.90;;;;;;5040270;28;20071;-75
2022/01/10 10:13:53;;;;;;;292.17;25.88;;;3.10;99.90;;;;;;5054594;28;20441;-75
2022/01/10 10:16:20;;;;;;;62.15;15.45;;;3.00;99.90;;;;;;5043949;28;20405;-74
2022/01/10 10:18:48;;;;;;;65.82;15.13;;;3.00;99.90;;;;;;5048353;28;20037;-75
2022/01/10 10:21:16;;;;;;;123.68;17.55;;;3.00;99.90;;;;;;5044251;28;20037;-75
2022/01/10 10:23:46;;;;;;;96.47;16.38;;;3.10;99.90;;;;;;5041183;28;20032;-75
2022/01/10 10:26:19;;;;;;;48.00;15.13;;;3.10;99.90;;;;;;5045134;28;20071;-75
2022/01/10 10:28:48;;;;;;;170.32;21.15;;;3.10;99.90;;;;;;5044186;28;20061;-75
2022/01/10 10:31:22;;;;;;;224.75;22.23;;;3.00;99.90;;;;;;5050714;28;20028;-74
2022/01/10 10:33:54;;;;;;;117.32;16.95;;;3.00;99.90;;;;;;5041101;28;20029;-75
2022/01/10 10:36:20;;;;;;;227.27;22.70;;;3.00;99.90;;;;;;5064748;28;20055;-75
2022/01/10 10:38:46;;;;;;;89.90;17.65;;;3.00;99.90;;;;;;5058239;28;20029;-75
2022/01/10 10:41:12;;;;;;;55.28;14.90;;;2.90;99.90;;;;;;5044302;28;20034;-75
2022/01/10 10:43:40;;;;;;;143.23;18.27;;;3.20;99.90;;;;;;5045778;28;20131;-75
2022/01/10 10:46:12;;;;;;;94.05;16.40;;;3.10;99.90;;;;;;5044298;28;20032;-76
2022/01/10 10:48:40;;;;;;;329.15;30.50;;;3.00;99.90;;;;;;5051237;28;20079;-75
2022/01/10 10:51:05;;;;;;;55.08;15.68;;;3.10;99.90;;;;;;5052640;28;20024;-75
2022/01/10 10:53:32;;;;;;;89.28;18.52;;;3.20;99.90;;;;;;5050048;28;20025;-75
2022/01/10 10:56:01;;;;;;;191.77;21.55;;;3.40;99.90;;;;;;5047758;28;20025;-76
2022/01/10 10:58:27;;;;;;;60.60;16.77;;;3.40;99.90;;;;;;5055271;28;20029;-75
2022/01/10 11:00:55;;;;;;;106.25;18.48;;;3.50;99.90;;;;;;5037454;28;20026;-75
2022/01/10 11:03:22;;;;;;;69.32;16.45;;;3.50;99.90;;;;;;5063516;28;20032;-75
2022/01/10 11:05:48;;;;;;;55.28;17.02;;;3.50;99.90;;;;;;5041039;28;20438;-75
2022/01/10 11:08:17;;;;;;;139.00;21.15;;;3.60;99.90;;;;;;5052770;28;20053;-75
2022/01/10 11:10:43;;;;;;;55.83;15.77;;;3.70;99.90;;;;;;5061254;28;20016;-75
2022/01/10 11:13:12;;;;;;;57.97;17.85;;;3.70;99.90;;;;;;5048525;28;20024;-75
2022/01/10 11:15:38;;;;;;;60.92;16.55;;;3.80;99.90;;;;;;5051842;28;20017;-75
2022/01/10 11:18:07;;;;;;;43.15;15.90;;;3.80;99.90;;;;;;5046481;28;20373;-75
2022/01/10 11:20:55;;;;;;;55.45;16.48;;;3.90;99.90;;;;;;5052322;28;20056;-75
2022/01/10 11:23:22;;;;;;;71.60;15.65;;;3.70;99.90;;;;;;5051055;28;20025;-75
2022/01/10 11:25:48;;;;;;;144.63;22.40;;;3.80;99.90;;;;;;5037762;28;20060;-75
2022/01/10 11:28:25;;;;;;;155.52;23.27;;;3.70;99.90;;;;;;5046430;28;20013;-75
2022/01/10 11:30:56;;;;;;;169.07;22.58;;;3.70;99.90;;;;;;5034914;28;20017;-76
2022/01/10 11:33:26;;;;;;;62.42;19.92;;;3.70;99.90;;;;;;5053134;28;20033;-75
2022/01/10 11:35:57;;;;;;;64.20;18.88;;;3.90;99.90;;;;;;5062095;28;20037;-75
2022/01/10 11:38:48;;;;;;;62.40;18.67;;;3.90;99.90;;;;;;5043029;28;20028;-75
2022/01/10 11:41:19;;;;;;;38.17;15.75;;;3.90;99.90;;;;;;5075124;28;20041;-75
2022/01/10 11:43:56;;;;;;;61.40;18.83;;;3.90;99.90;;;;;;5056898;28;20108;-75
2022/01/10 11:46:34;;;;;;;75.35;20.35;;;4.00;99.90;;;;;;5043716;28;20490;-75
2022/01/10 11:49:21;;;;;;;94.85;21.45;;;4.00;99.90;;;;;;5049247;28;20052;-76
2022/01/10 11:51:51;;;;;;;98.63;21.98;;;4.00;99.90;;;;;;5051273;28;20036;-75
2022/01/10 11:54:27;;;;;;;99.00;21.90;;;3.90;99.90;;;;;;5046231;28;20038;-75
2022/01/10 11:57:15;;;;;;;73.25;21.73;;;4.00;99.90;;;;;;5069933;28;20028;-75
2022/01/10 11:59:42;;;;;;;55.85;19.48;;;4.10;99.90;;;;;;5048491;28;20069;-75
2022/01/10 12:02:23;;;;;;;54.38;19.13;;;4.10;99.90;;;;;;5043417;28;20381;-75
2022/01/10 12:04:52;;;;;;;58.42;21.20;;;4.10;99.90;;;;;;5054508;28;20028;-75
2022/01/10 12:07:22;;;;;;;80.57;19.63;;;4.10;99.90;;;;;;5048057;28;20021;-75
2022/01/10 12:09:48;;;;;;;55.10;19.77;;;4.00;99.90;;;;;;5065009;28;20028;-75
2022/01/10 12:12:16;;;;;;;76.55;22.98;;;4.10;99.90;;;;;;5061063;28;20103;-76
2022/01/10 12:14:42;;;;;;;175.50;28.08;;;4.10;99.90;;;;;;5056104;28;20029;-76
2022/01/10 12:17:10;;;;;;;66.43;21.23;;;4.20;99.90;;;;;;5058476;28;20033;-76
2022/01/10 12:19:37;;;;;;;344.60;39.20;;;4.20;99.90;;;;;;5053934;28;20115;-76
2022/01/10 12:22:06;;;;;;;172.45;30.58;;;4.30;99.90;;;;;;5050733;28;20036;-75
2022/01/10 12:24:37;;;;;;;57.38;21.38;;;4.30;99.90;;;;;;5043448;28;20485;-75
2022/01/10 12:27:06;;;;;;;55.33;21.52;;;4.40;99.90;;;;;;5048749;28;20036;-76
2022/01/10 12:29:33;;;;;;;46.00;20.73;;;4.40;99.90;;;;;;5052181;28;20078;-75
2022/01/10 12:32:00;;;;;;;82.15;21.90;;;4.40;99.90;;;;;;5052300;28;20081;-75
2022/01/10 12:34:26;;;;;;;64.07;19.00;;;4.40;99.90;;;;;;5049583;28;20032;-75
2022/01/10 12:36:52;;;;;;;47.45;18.05;;;4.40;99.90;;;;;;5050452;28;20024;-76
2022/01/10 12:39:23;;;;;;;61.03;19.50;;;4.50;99.90;;;;;;5046203;28;20382;-75
2022/01/10 12:41:51;;;;;;;53.65;20.55;;;4.50;99.90;;;;;;5046108;28;20048;-75